createdAt,value
2017-06-05T00:00:02.843Z,96.79
2017-06-05T00:10:02.864Z,97.45
2017-06-05T00:20:03.038Z,96.46
2017-06-05T00:30:02.469Z,97
2017-06-05T00:40:02.967Z,96.95
2017-06-05T00:50:02.088Z,96.72
2017-06-05T01:00:02.591Z,97.52
2017-06-05T01:10:02.505Z,95.86
2017-06-05T01:20:02.439Z,96.25
2017-06-05T01:30:02.868Z,96.36
2017-06-05T01:40:02.392Z,96.7
2017-06-05T01:50:02.457Z,98.24
2017-06-05T02:00:02.926Z,98.22
2017-06-05T02:10:02.798Z,97.66
2017-06-05T02:20:02.647Z,98.4
2017-06-05T02:30:02.123Z,97.46
2017-06-05T02:40:02.750Z,96.46
2017-06-05T02:50:02.826Z,97.35
2017-06-05T03:00:02.345Z,96.48
2017-06-05T03:10:02.151Z,96.95
2017-06-05T03:20:02.376Z,97.92
2017-06-05T03:30:02.842Z,97.63
2017-06-05T03:40:02.878Z,98.52
2017-06-05T03:50:02.185Z,98.54
2017-06-05T04:00:02.672Z,98.99
2017-06-05T04:10:02.582Z,99.59
2017-06-05T04:20:02.548Z,100.2
2017-06-05T04:30:03.010Z,100.13
2017-06-05T04:40:02.955Z,99.97
2017-06-05T04:50:02.893Z,100.41
2017-06-05T05:00:02.355Z,97.96
2017-06-05T05:10:02.855Z,97.18
2017-06-05T05:20:02.399Z,97.2
2017-06-05T05:30:02.868Z,97.53
2017-06-05T05:40:02.762Z,98.16
2017-06-05T05:50:02.441Z,97.52
2017-06-05T06:00:02.895Z,97.52
2017-06-05T06:10:02.601Z,97.31
2017-06-05T06:20:02.845Z,97.21
2017-06-05T06:30:02.348Z,96.05
2017-06-05T06:40:02.728Z,94.99
2017-06-05T06:50:02.910Z,93.86
2017-06-05T07:00:02.431Z,90.01
2017-06-05T07:10:02.901Z,85.14
2017-06-05T07:20:02.143Z,84.01
2017-06-05T07:30:02.541Z,83.45
2017-06-05T07:40:02.467Z,79.74
2017-06-05T07:50:02.524Z,77.47
2017-06-05T08:00:03.003Z,75.49
2017-06-05T08:10:02.945Z,68.02
2017-06-05T08:20:03.016Z,68.54
2017-06-05T08:30:02.488Z,63.27
2017-06-05T08:40:02.577Z,66.02
2017-06-05T08:50:02.730Z,64.09
2017-06-05T09:00:02.197Z,66.47
2017-06-05T09:10:02.829Z,60.94
2017-06-05T09:20:02.121Z,62.31
2017-06-05T09:30:02.587Z,63.44
2017-06-05T09:40:02.031Z,61.9
2017-06-05T09:50:02.119Z,55.22
2017-06-05T10:00:02.566Z,55.94
2017-06-05T10:10:02.576Z,53.41
2017-06-05T10:20:02.332Z,56.15
2017-06-05T10:30:02.794Z,55.19
2017-06-05T10:40:02.949Z,56.23
2017-06-05T10:50:02.751Z,50.06
2017-06-05T11:00:02.220Z,50.77
2017-06-05T11:10:02.938Z,51.81
2017-06-05T11:20:02.830Z,52.73
2017-06-05T11:30:02.229Z,49.77
2017-06-05T11:40:02.816Z,47.02
2017-06-05T11:50:02.106Z,49.88
2017-06-05T12:00:02.579Z,49.97
2017-06-05T12:10:02.258Z,50.29
2017-06-05T12:20:02.874Z,48.18
2017-06-05T12:30:02.318Z,46.91
2017-06-05T12:40:02.918Z,46.23
2017-06-05T12:50:02.504Z,45.38
2017-06-05T13:00:02.954Z,47.21
2017-06-05T13:10:02.465Z,46.95
2017-06-05T13:20:03.013Z,48.4
2017-06-05T13:30:02.480Z,44.79
2017-06-05T13:40:02.782Z,42.44
2017-06-05T13:50:02.394Z,45.24
2017-06-05T14:00:02.815Z,43.43
2017-06-05T14:10:02.988Z,43.73
2017-06-05T14:20:02.976Z,45.87
2017-06-05T14:30:02.383Z,43.72
2017-06-05T14:40:02.263Z,43.3
2017-06-05T14:50:02.351Z,43.42
2017-06-05T15:00:02.863Z,42.37
2017-06-05T15:10:02.304Z,42.98
2017-06-05T15:20:02.529Z,43.9
2017-06-05T15:30:02.982Z,42.23
2017-06-05T15:40:02.462Z,43
2017-06-05T15:50:02.880Z,42.31
2017-06-05T16:00:02.366Z,42.65
2017-06-05T16:10:02.178Z,42.82
2017-06-05T16:20:02.746Z,44.08
2017-06-05T16:30:02.193Z,44.79
2017-06-05T16:40:02.679Z,44.65
2017-06-05T16:50:02.689Z,46.22
2017-06-05T17:00:02.195Z,46.48
2017-06-05T17:10:02.783Z,47.13
2017-06-05T17:20:02.766Z,48.15
2017-06-05T17:30:02.241Z,49.38
2017-06-05T17:40:02.825Z,50.99
2017-06-05T17:50:02.374Z,49.74
2017-06-05T18:00:02.850Z,52.44
2017-06-05T18:10:02.049Z,55.26
2017-06-05T18:20:02.698Z,58.46
2017-06-05T18:30:02.212Z,59.51
2017-06-05T18:40:02.698Z,60.58
2017-06-05T18:50:02.383Z,62.96
2017-06-05T19:00:02.818Z,64.63
2017-06-05T19:10:02.431Z,66.7
2017-06-05T19:20:02.690Z,69.31
2017-06-05T19:30:02.118Z,70.19
2017-06-05T19:40:02.624Z,71.69
2017-06-05T19:50:02.144Z,72.79
2017-06-05T20:00:02.619Z,74.2
2017-06-05T20:10:02.312Z,75.02
2017-06-05T20:20:02.301Z,77.68
2017-06-05T20:30:02.729Z,78.8
2017-06-05T20:40:02.228Z,79.49
2017-06-05T20:50:02.581Z,79.85
2017-06-05T21:00:02.074Z,82.13
2017-06-05T21:10:03.110Z,81.85
2017-06-05T21:20:02.700Z,82.97
2017-06-05T22:10:02.594Z,84.94
2017-06-05T22:20:02.437Z,86.46
2017-06-05T22:30:02.895Z,86.41
2017-06-05T22:40:02.474Z,86.65
2017-06-05T22:50:02.258Z,87.59
2017-06-05T23:00:02.711Z,88.97
2017-06-05T23:10:02.547Z,89.35
2017-06-05T23:20:02.554Z,89.63
2017-06-05T23:30:02.044Z,91.22
2017-06-05T23:40:02.543Z,90.51
2017-06-05T23:50:02.807Z,90.99
